Terminal Aerodrome Forecast
Issued by NWS

Home | Current Version | Previous Version | Text Only | Print | Product List | Glossary On
Versions: 1 2 3 4 5 6 7 8 9 10 11 12
323
FTUS44 KMAF 260520
TAFPEQ
TAF
KPEQ 260520Z 2606/2706 08009KT P6SM SCT080
     FM260800 01011KT P6SM SCT130 SCT200
     FM261900 06010KT P6SM SCT060 SCT100=

USA.gov is the U.S. government's official web portal to all federal, state and local government web resources and services.